createdAt,value
2019-01-21T00:00:00.900Z,101867.95
2019-01-21T00:01:13.613Z,101871.78
2019-01-21T00:02:20.538Z,101871.30
2019-01-21T00:03:27.284Z,101874.28
2019-01-21T00:04:34.280Z,101868.88
2019-01-21T00:05:41.271Z,101869.28
2019-01-21T00:06:48.406Z,101872.80
2019-01-21T00:07:55.507Z,101868.95
2019-01-21T00:09:02.588Z,101877.19
2019-01-21T00:10:09.538Z,101871.02
2019-01-21T00:11:16.549Z,101873.87
2019-01-21T00:12:23.606Z,101871.06
2019-01-21T00:13:30.738Z,101870.20
2019-01-21T00:14:37.599Z,101868.19
2019-01-21T00:15:44.796Z,101874.05
2019-01-21T00:16:51.515Z,101871.06
2019-01-21T00:17:58.289Z,101868.27
2019-01-21T00:19:05.063Z,101869.03
2019-01-21T00:20:11.777Z,101868.19
2019-01-21T00:21:18.552Z,101878.89
2019-01-21T00:22:25.552Z,101883.61
2019-01-21T00:23:32.456Z,101877.42
2019-01-21T00:24:39.183Z,101883.14
2019-01-21T00:25:45.906Z,101883.92
2019-01-21T00:26:53.079Z,101882.61
2019-01-21T00:27:59.820Z,101879.00
2019-01-21T00:29:06.617Z,101877.84
2019-01-21T00:30:13.533Z,101879.41
2019-01-21T00:31:20.306Z,101883.08
2019-01-21T00:32:27.633Z,101880.09
2019-01-21T00:33:34.947Z,101881.67
2019-01-21T00:34:41.728Z,101878.69
2019-01-21T00:35:48.492Z,101873.20
2019-01-21T00:36:55.268Z,101873.18
2019-01-21T00:38:02.032Z,101872.64
2019-01-21T00:39:09.550Z,101873.75
2019-01-21T00:40:16.862Z,101872.50
2019-01-21T00:41:23.761Z,101875.77
2019-01-21T00:42:30.629Z,101868.97
2019-01-21T00:43:37.749Z,101872.67
2019-01-21T00:44:44.868Z,101879.69
2019-01-21T00:45:51.882Z,101872.50
2019-01-21T00:46:58.625Z,101872.19
2019-01-21T00:48:05.533Z,101871.19
2019-01-21T00:49:12.216Z,101874.23
2019-01-21T00:50:18.896Z,101872.98
2019-01-21T00:51:25.843Z,101866.33
2019-01-21T00:52:32.747Z,101867.44
2019-01-21T00:53:39.797Z,101874.14
2019-01-21T00:54:47.161Z,101870.64
2019-01-21T00:55:54.186Z,101869.62
2019-01-21T00:57:00.921Z,101870.87
2019-01-21T00:58:08.167Z,101874.22
2019-01-21T00:59:15.028Z,101874.87
2019-01-21T01:00:26.113Z,101873.30
2019-01-21T01:01:33.547Z,101875.66
2019-01-21T01:02:40.267Z,101874.85
2019-01-21T01:03:47.402Z,101873.28
2019-01-21T01:04:54.756Z,101871.27
2019-01-21T01:06:01.458Z,101873.28
2019-01-21T01:07:08.733Z,101874.72
2019-01-21T01:08:15.443Z,101875.95
2019-01-21T01:09:22.351Z,101879.45
2019-01-21T01:10:29.074Z,101879.62
2019-01-21T01:11:35.821Z,101878.04
2019-01-21T01:12:42.773Z,101872.50
2019-01-21T01:13:49.845Z,101878.35
2019-01-21T01:14:56.928Z,101881.16
2019-01-21T01:16:03.634Z,101878.58
2019-01-21T01:17:10.975Z,101881.34
2019-01-21T01:18:18.366Z,101885.80
2019-01-21T01:19:25.060Z,101883.83
2019-01-21T01:20:32.416Z,101885.88
2019-01-21T01:21:39.537Z,101886.56
2019-01-21T01:22:46.643Z,101890.08
2019-01-21T01:23:55.095Z,101893.20
2019-01-21T01:25:02.130Z,101886.67
2019-01-21T01:26:09.175Z,101896.19
2019-01-21T01:27:16.219Z,101891.10
2019-01-21T01:28:22.921Z,101888.52
2019-01-21T01:29:29.612Z,101890.97
2019-01-21T01:30:36.410Z,101888.75
2019-01-21T01:31:43.151Z,101888.83
2019-01-21T01:32:50.638Z,101891.81
2019-01-21T01:33:57.335Z,101887.35
2019-01-21T01:35:04.030Z,101889.09
2019-01-21T01:36:10.754Z,101892.35
2019-01-21T01:37:17.455Z,101896.02
2019-01-21T01:38:24.170Z,101891.73
2019-01-21T01:39:30.845Z,101898.07
2019-01-21T01:40:37.892Z,101899.55
2019-01-21T01:41:44.816Z,101899.16
2019-01-21T01:42:51.889Z,101900.41
2019-01-21T01:43:59.015Z,101900.86
2019-01-21T01:45:06.871Z,101901.66
2019-01-21T01:46:13.571Z,101897.50
2019-01-21T01:47:20.984Z,101903.44
2019-01-21T01:48:28.787Z,101906.20
2019-01-21T01:49:35.536Z,101903.75
2019-01-21T01:50:42.695Z,101906.91
2019-01-21T01:51:49.385Z,101901.02
2019-01-21T01:52:56.603Z,101904.32
2019-01-21T01:54:03.321Z,101899.72
2019-01-21T01:55:11.462Z,101904.55
2019-01-21T01:56:18.127Z,101903.98
2019-01-21T01:57:25.179Z,101903.98
2019-01-21T01:58:31.897Z,101907.36
2019-01-21T01:59:38.862Z,101904.37
2019-01-21T02:00:45.526Z,101906.25
2019-01-21T02:01:52.270Z,101910.63
2019-01-21T02:02:59.511Z,101907.16
2019-01-21T02:04:06.439Z,101903.41
2019-01-21T02:05:13.155Z,101909.57
2019-01-21T02:06:20.156Z,101905.52
2019-01-21T02:07:26.885Z,101904.57
2019-01-21T02:08:33.550Z,101891.31
2019-01-21T02:09:40.334Z,101897.56
2019-01-21T02:10:47.546Z,101894.48
2019-01-21T02:11:54.553Z,101899.34
2019-01-21T02:13:02.042Z,101890.69
2019-01-21T02:14:08.840Z,101883.41
2019-01-21T02:15:16.376Z,101890.73
2019-01-21T02:16:23.160Z,101889.97
2019-01-21T02:17:29.910Z,101885.83
2019-01-21T02:18:36.694Z,101895.73
2019-01-21T02:19:47.765Z,101897.78
2019-01-21T02:20:59.038Z,101892.84
2019-01-21T02:22:23.732Z,101891.33
2019-01-21T02:23:36.309Z,101896.27
2019-01-21T02:24:46.046Z,101890.30
2019-01-21T02:26:01.726Z,101893.20
2019-01-21T02:27:29.016Z,101894.70
2019-01-21T02:29:04.684Z,101895.08
2019-01-21T02:30:53.351Z,101894.48
2019-01-21T02:32:59.128Z,101896.98
2019-01-21T02:35:03.100Z,101894.58
2019-01-21T02:36:44.086Z,101893.95
2019-01-21T02:38:33.764Z,101894.34
2019-01-21T02:40:13.492Z,101890.73
2019-01-21T02:41:51.406Z,101890.08
2019-01-21T02:43:43.718Z,101894.63
2019-01-21T02:45:38.047Z,101883.73
2019-01-21T02:47:46.197Z,101888.95
2019-01-21T02:49:53.393Z,101890.20
2019-01-21T02:51:39.017Z,101889.31
2019-01-21T02:53:32.267Z,101889.48
2019-01-21T02:55:12.662Z,101882.75
2019-01-21T02:57:12.221Z,101883.64
2019-01-21T02:59:34.000Z,101877.48
2019-01-21T03:01:31.257Z,101877.00
2019-01-21T03:03:32.546Z,101879.00
2019-01-21T03:05:16.031Z,101872.62
2019-01-21T03:07:19.553Z,101871.50
2019-01-21T03:09:44.457Z,101871.41
2019-01-21T03:11:37.766Z,101869.45
2019-01-21T03:13:08.501Z,101868.16
2019-01-21T03:15:03.987Z,101866.16
2019-01-21T03:17:06.992Z,101866.38
2019-01-21T03:19:32.493Z,101870.43
2019-01-21T03:21:59.628Z,101875.10
2019-01-21T03:24:03.625Z,101863.91
2019-01-21T03:26:15.006Z,101868.08
2019-01-21T03:28:24.392Z,101866.11
2019-01-21T03:30:25.891Z,101861.22
2019-01-21T03:33:01.284Z,101862.80
2019-01-21T03:35:17.278Z,101862.40
2019-01-21T03:37:29.899Z,101866.61
2019-01-21T03:39:44.910Z,101858.79
2019-01-21T03:42:09.554Z,101856.56
2019-01-21T03:43:57.380Z,101852.88
2019-01-21T03:46:26.530Z,101852.72
2019-01-21T03:48:16.752Z,101854.55
2019-01-21T03:50:17.677Z,101850.41
2019-01-21T03:52:35.466Z,101854.06
2019-01-21T03:54:09.384Z,101853.39
2019-01-21T03:55:19.024Z,101848.92
2019-01-21T03:57:03.412Z,101845.63
2019-01-21T03:59:06.848Z,101844.48
2019-01-21T04:01:17.025Z,101844.60
2019-01-21T04:03:24.557Z,101843.31
2019-01-21T04:05:10.819Z,101841.67
2019-01-21T04:06:52.844Z,101842.90
2019-01-21T04:08:53.599Z,101840.95
2019-01-21T04:11:13.828Z,101844.14
2019-01-21T04:13:19.855Z,101843.17
2019-01-21T04:15:30.064Z,101845.16
2019-01-21T04:17:15.955Z,101843.14
2019-01-21T04:19:10.000Z,101840.89
2019-01-21T04:21:18.980Z,101843.15
2019-01-21T04:23:14.896Z,101839.98
2019-01-21T04:25:08.676Z,101844.39
2019-01-21T04:27:23.869Z,101849.39
2019-01-21T04:29:25.135Z,101842.69
2019-01-21T04:31:46.521Z,101846.67
2019-01-21T04:33:24.653Z,101845.12
2019-01-21T04:35:19.200Z,101844.91
2019-01-21T04:37:13.476Z,101839.53
2019-01-21T04:39:22.690Z,101838.89
2019-01-21T04:41:17.629Z,101839.98
2019-01-21T04:43:29.912Z,101839.44
2019-01-21T04:44:58.956Z,101838.83
2019-01-21T04:46:58.625Z,101840.01
2019-01-21T04:48:58.304Z,101834.38
2019-01-21T04:50:46.353Z,101838.52
2019-01-21T04:52:40.468Z,101831.15
2019-01-21T04:54:22.433Z,101836.78
2019-01-21T04:56:09.740Z,101836.48
2019-01-21T04:58:11.311Z,101832.31
2019-01-21T05:00:20.813Z,101835.11
2019-01-21T05:02:17.537Z,101835.02
2019-01-21T05:04:14.669Z,101829.09
2019-01-21T05:06:40.253Z,101831.30
2019-01-21T05:08:34.100Z,101835.09
2019-01-21T05:10:30.235Z,101827.22
2019-01-21T05:12:44.654Z,101827.80
2019-01-21T05:14:31.298Z,101820.88
2019-01-21T05:16:41.597Z,101820.97
2019-01-21T05:18:48.748Z,101821.27
2019-01-21T05:21:01.103Z,101822.82
2019-01-21T05:22:37.972Z,101820.88
2019-01-21T05:24:38.845Z,101822.20
2019-01-21T05:27:03.392Z,101824.11
2019-01-21T05:29:07.308Z,101817.67
2019-01-21T05:31:04.463Z,101824.69
2019-01-21T05:32:59.233Z,101821.31
2019-01-21T05:35:27.608Z,101818.45
2019-01-21T05:37:31.814Z,101822.66
2019-01-21T05:39:08.276Z,101823.59
2019-01-21T05:41:03.414Z,101832.81
2019-01-21T05:42:57.384Z,101829.58
2019-01-21T05:44:59.620Z,101830.34
2019-01-21T05:46:49.183Z,101830.83
2019-01-21T05:48:50.556Z,101840.11
2019-01-21T05:51:22.785Z,101830.63
2019-01-21T05:53:32.302Z,101837.82
2019-01-21T05:55:33.656Z,101826.80
2019-01-21T05:57:50.005Z,101826.16
2019-01-21T05:59:50.491Z,101832.91
2019-01-21T06:02:09.062Z,101831.16
2019-01-21T06:04:15.465Z,101827.62
2019-01-21T06:06:13.993Z,101831.56
2019-01-21T06:08:20.977Z,101832.70
2019-01-21T06:10:16.734Z,101832.49
2019-01-21T06:12:18.140Z,101836.02
2019-01-21T06:14:20.914Z,101835.12
2019-01-21T06:16:16.481Z,101836.95
2019-01-21T06:17:51.942Z,101842.59
2019-01-21T06:19:47.688Z,101842.59
2019-01-21T06:22:01.802Z,101848.17
2019-01-21T06:23:45.599Z,101853.41
2019-01-21T06:25:34.023Z,101855.05
2019-01-21T06:27:40.148Z,101857.94
2019-01-21T06:29:35.671Z,101860.13
2019-01-21T06:31:57.819Z,101857.03
2019-01-21T06:34:19.477Z,101851.44
2019-01-21T06:36:18.466Z,101845.60
2019-01-21T06:38:24.086Z,101840.03
2019-01-21T06:40:25.788Z,101833.25
2019-01-21T06:42:44.931Z,101836.25
2019-01-21T06:44:49.226Z,101834.06
2019-01-21T06:47:06.406Z,101830.13
2019-01-21T06:48:53.976Z,101833.23
2019-01-21T06:51:13.334Z,101841.77
2019-01-21T06:53:23.033Z,101848.85
2019-01-21T06:55:25.865Z,101854.53
2019-01-21T06:57:43.891Z,101862.45
2019-01-21T07:00:03.329Z,101863.49
2019-01-21T07:02:05.168Z,101871.71
2019-01-21T07:04:06.516Z,101877.00
2019-01-21T07:06:15.017Z,101890.41
2019-01-21T07:08:21.073Z,101900.15
2019-01-21T07:10:09.854Z,101904.44
2019-01-21T07:12:18.175Z,101899.66
2019-01-21T07:14:22.873Z,101900.28
2019-01-21T07:16:27.078Z,101906.07
2019-01-21T07:18:48.822Z,101900.53
2019-01-21T07:21:13.332Z,101900.33
2019-01-21T07:22:36.877Z,101903.27
2019-01-21T07:24:44.783Z,101911.30
2019-01-21T07:26:33.371Z,101909.75
2019-01-21T07:28:37.766Z,101909.84
2019-01-21T07:30:51.039Z,101905.45
2019-01-21T07:33:08.598Z,101902.85
2019-01-21T07:35:27.059Z,101903.52
2019-01-21T07:37:47.522Z,101914.73
2019-01-21T07:39:41.503Z,101911.37
2019-01-21T07:41:47.274Z,101907.05
2019-01-21T07:43:35.914Z,101903.30
2019-01-21T07:45:11.801Z,101900.92
2019-01-21T07:47:14.977Z,101897.63
2019-01-21T07:49:36.156Z,101903.36
2019-01-21T07:51:27.336Z,101906.41
2019-01-21T07:53:35.886Z,101901.02
2019-01-21T07:55:49.278Z,101900.08
2019-01-21T07:58:01.968Z,101894.23
2019-01-21T08:00:03.887Z,101901.97
2019-01-21T08:01:49.165Z,101903.01
2019-01-21T08:04:00.544Z,101906.69
2019-01-21T08:06:12.762Z,101907.14
2019-01-21T08:08:13.286Z,101908.28
2019-01-21T08:10:15.623Z,101902.50
2019-01-21T08:11:54.451Z,101901.80
2019-01-21T08:14:19.396Z,101901.41
2019-01-21T08:16:32.689Z,101902.73
2019-01-21T08:18:11.854Z,101897.11
2019-01-21T08:20:22.952Z,101896.81
2019-01-21T08:22:40.831Z,101896.20
2019-01-21T08:24:40.817Z,101905.86
2019-01-21T08:26:25.967Z,101900.38
2019-01-21T08:28:04.716Z,101896.32
2019-01-21T08:30:12.865Z,101890.48
2019-01-21T08:31:59.636Z,101895.91
2019-01-21T08:33:55.846Z,101898.72
2019-01-21T08:35:47.035Z,101895.13
2019-01-21T08:37:51.436Z,101896.98
2019-01-21T08:40:01.481Z,101891.08
2019-01-21T08:42:08.636Z,101887.30
2019-01-21T08:44:40.036Z,101889.76
2019-01-21T08:46:27.295Z,101893.80
2019-01-21T08:48:29.320Z,101887.33
2019-01-21T08:50:16.750Z,101887.78
2019-01-21T08:52:07.355Z,101881.53
2019-01-21T08:53:49.648Z,101878.28
2019-01-21T08:55:49.786Z,101872.89
2019-01-21T08:57:42.618Z,101871.59
2019-01-21T08:59:43.503Z,101866.06
2019-01-21T09:01:52.775Z,101863.34
2019-01-21T09:04:04.073Z,101860.00
2019-01-21T09:06:09.488Z,101868.38
2019-01-21T09:08:19.840Z,101865.52
2019-01-21T09:10:07.332Z,101862.31
2019-01-21T09:12:07.479Z,101862.08
2019-01-21T09:13:54.635Z,101856.23
2019-01-21T09:15:44.855Z,101865.38
2019-01-21T09:17:34.816Z,101870.77
2019-01-21T09:19:19.928Z,101870.39
2019-01-21T09:21:13.038Z,101866.94
2019-01-21T09:22:44.659Z,101859.61
2019-01-21T09:24:56.817Z,101863.45
2019-01-21T09:26:23.282Z,101863.98
2019-01-21T09:28:32.046Z,101862.20
2019-01-21T09:30:27.748Z,101861.73
2019-01-21T09:32:34.355Z,101858.44
2019-01-21T09:34:23.440Z,101855.69
2019-01-21T09:36:41.194Z,101848.56
2019-01-21T09:38:39.643Z,101856.59
2019-01-21T09:40:37.236Z,101853.13
2019-01-21T09:42:47.006Z,101854.86
2019-01-21T09:44:37.455Z,101852.72
2019-01-21T09:46:48.662Z,101857.53
2019-01-21T09:47:52.780Z,101859.85
2019-01-21T09:48:57.176Z,101860.19
2019-01-21T09:50:05.262Z,101859.06
2019-01-21T09:51:12.291Z,101860.14
2019-01-21T09:52:22.304Z,101868.81
2019-01-21T09:53:29.138Z,101868.68
2019-01-21T09:54:40.835Z,101874.84
2019-01-21T09:55:53.205Z,101872.77
2019-01-21T09:57:02.129Z,101874.91
2019-01-21T09:58:10.417Z,101872.22
2019-01-21T09:59:17.476Z,101871.48
2019-01-21T10:00:24.947Z,101874.84
2019-01-21T10:01:33.972Z,101871.16
2019-01-21T10:02:50.953Z,101865.81
2019-01-21T10:03:58.284Z,101863.92
2019-01-21T10:05:17.318Z,101864.92
2019-01-21T10:06:52.920Z,101865.11
2019-01-21T10:09:16.046Z,101868.09
2019-01-21T10:11:52.828Z,101870.45
2019-01-21T10:14:14.261Z,101866.80
2019-01-21T10:15:50.891Z,101865.87
2019-01-21T10:17:32.194Z,101867.50
2019-01-21T10:19:38.256Z,101860.97
2019-01-21T10:21:28.579Z,101860.81
2019-01-21T10:23:27.035Z,101850.09
2019-01-21T10:25:22.805Z,101852.91
2019-01-21T10:27:49.589Z,101849.24
2019-01-21T10:29:17.148Z,101849.24
2019-01-21T10:31:13.798Z,101842.94
2019-01-21T10:33:24.040Z,101834.00
2019-01-21T10:35:24.272Z,101839.94
2019-01-21T10:37:26.326Z,101833.88
2019-01-21T10:39:25.245Z,101826.23
2019-01-21T10:41:06.498Z,101830.13
2019-01-21T10:43:06.313Z,101829.80
2019-01-21T10:45:05.639Z,101831.53
2019-01-21T10:47:26.742Z,101832.48
2019-01-21T10:49:47.556Z,101831.50
2019-01-21T10:51:21.295Z,101822.92
2019-01-21T10:53:24.856Z,101819.08
2019-01-21T10:55:02.283Z,101817.66
2019-01-21T10:56:59.673Z,101811.42
2019-01-21T10:58:51.511Z,101813.92
2019-01-21T11:00:41.551Z,101812.79
2019-01-21T11:02:41.897Z,101813.05
2019-01-21T11:04:48.001Z,101805.83
2019-01-21T11:06:20.568Z,101807.62
2019-01-21T11:08:41.875Z,101803.92
2019-01-21T11:10:44.919Z,101805.03
2019-01-21T11:12:57.140Z,101806.76
2019-01-21T11:14:48.383Z,101800.30
2019-01-21T11:16:34.650Z,101802.17
2019-01-21T11:18:40.743Z,101797.91
2019-01-21T11:20:42.734Z,101794.25
2019-01-21T11:22:07.746Z,101791.91
2019-01-21T11:23:55.415Z,101783.09
2019-01-21T11:26:06.203Z,101778.39
2019-01-21T11:27:59.965Z,101777.98
2019-01-21T11:30:00.186Z,101773.17
2019-01-21T11:31:49.553Z,101775.75
2019-01-21T11:34:04.872Z,101776.70
2019-01-21T11:36:19.926Z,101779.23
2019-01-21T11:38:40.943Z,101773.47
2019-01-21T11:40:30.488Z,101775.88
2019-01-21T11:42:41.099Z,101772.27
2019-01-21T11:44:43.497Z,101770.28
2019-01-21T11:46:55.022Z,101762.52
2019-01-21T11:48:50.862Z,101768.52
2019-01-21T11:51:02.930Z,101765.87
2019-01-21T11:52:47.738Z,101772.13
2019-01-21T11:54:37.557Z,101768.15
2019-01-21T11:56:37.957Z,101767.25
2019-01-21T11:58:30.291Z,101772.08
2019-01-21T12:00:08.226Z,101761.45
2019-01-21T12:01:41.888Z,101758.98
2019-01-21T12:03:41.903Z,101758.98
2019-01-21T12:05:31.740Z,101758.30
2019-01-21T12:07:04.825Z,101753.96
2019-01-21T12:09:09.394Z,101758.31
2019-01-21T12:11:13.651Z,101755.61
2019-01-21T12:12:54.058Z,101756.88
2019-01-21T12:14:52.989Z,101756.59
2019-01-21T12:17:05.217Z,101758.33
2019-01-21T12:19:09.489Z,101754.34
2019-01-21T12:21:36.981Z,101756.73
2019-01-21T12:23:36.616Z,101752.66
2019-01-21T12:25:02.006Z,101754.06
2019-01-21T12:27:00.415Z,101748.31
2019-01-21T12:28:35.375Z,101753.42
2019-01-21T12:30:33.163Z,101746.83
2019-01-21T12:32:54.887Z,101750.80
2019-01-21T12:34:19.895Z,101748.41
2019-01-21T12:36:40.543Z,101745.52
2019-01-21T12:38:29.141Z,101744.34
2019-01-21T12:40:26.775Z,101732.59
2019-01-21T12:42:13.452Z,101741.25
2019-01-21T12:44:08.323Z,101732.73
2019-01-21T12:46:23.271Z,101729.92
2019-01-21T12:48:13.458Z,101731.52
2019-01-21T12:50:38.088Z,101731.33
2019-01-21T12:52:50.036Z,101729.22
2019-01-21T12:54:53.890Z,101725.09
2019-01-21T12:57:03.644Z,101727.67
2019-01-21T12:59:23.674Z,101727.39
2019-01-21T13:01:17.387Z,101730.89
2019-01-21T13:03:51.259Z,101725.03
2019-01-21T13:05:21.138Z,101714.50
2019-01-21T13:07:34.114Z,101710.20
2019-01-21T13:09:20.165Z,101711.13
2019-01-21T13:11:15.697Z,101707.98
2019-01-21T13:13:21.041Z,101706.88
2019-01-21T13:15:18.091Z,101706.92
2019-01-21T13:17:13.290Z,101702.20
2019-01-21T13:19:22.218Z,101698.95
2019-01-21T13:21:19.225Z,101699.59
2019-01-21T13:23:17.345Z,101697.86
2019-01-21T13:25:07.564Z,101696.47
2019-01-21T13:27:21.427Z,101699.62
2019-01-21T13:29:13.778Z,101697.56
2019-01-21T13:31:12.030Z,101695.00
2019-01-21T13:33:15.005Z,101691.37
2019-01-21T13:35:21.505Z,101688.80
2019-01-21T13:37:12.392Z,101687.20
2019-01-21T13:39:09.008Z,101686.23
2019-01-21T13:41:42.783Z,101678.30
2019-01-21T13:43:35.362Z,101671.19
2019-01-21T13:45:45.615Z,101667.56
2019-01-21T13:48:01.753Z,101666.14
2019-01-21T13:49:30.475Z,101660.19
2019-01-21T13:51:51.970Z,101658.52
2019-01-21T13:53:43.985Z,101662.30
2019-01-21T13:55:52.745Z,101658.97
2019-01-21T13:57:48.302Z,101668.33
2019-01-21T13:59:35.543Z,101662.25
2019-01-21T14:02:08.305Z,101658.05
2019-01-21T14:03:58.789Z,101659.30
2019-01-21T14:06:14.737Z,101660.16
2019-01-21T14:08:05.010Z,101653.92
2019-01-21T14:10:00.047Z,101642.92
2019-01-21T14:11:54.367Z,101644.69
2019-01-21T14:13:52.077Z,101643.47
2019-01-21T14:15:57.146Z,101639.97
2019-01-21T14:18:09.411Z,101633.78
2019-01-21T14:19:54.099Z,101634.83
2019-01-21T14:21:38.616Z,101632.59
2019-01-21T14:23:25.403Z,101637.69
2019-01-21T14:25:49.922Z,101641.14
2019-01-21T14:28:04.464Z,101644.09
2019-01-21T14:30:07.395Z,101638.75
2019-01-21T14:32:25.983Z,101637.83
2019-01-21T14:34:11.291Z,101634.36
2019-01-21T14:36:02.585Z,101629.73
2019-01-21T14:37:52.472Z,101628.93
2019-01-21T14:39:35.152Z,101627.63
2019-01-21T14:41:36.865Z,101624.27
2019-01-21T14:43:51.764Z,101622.23
2019-01-21T14:45:43.201Z,101618.66
2019-01-21T14:47:35.567Z,101607.91
2019-01-21T14:49:33.310Z,101607.36
2019-01-21T14:51:58.085Z,101603.52
2019-01-21T14:53:48.118Z,101606.39
2019-01-21T14:55:42.048Z,101604.74
2019-01-21T14:57:35.621Z,101602.98
2019-01-21T14:59:28.851Z,101604.56
2019-01-21T15:01:33.845Z,101601.11
2019-01-21T15:03:34.134Z,101600.59
2019-01-21T15:05:15.980Z,101601.26
2019-01-21T15:07:12.802Z,101596.95
2019-01-21T15:08:43.174Z,101597.23
2019-01-21T15:10:23.346Z,101600.13
2019-01-21T15:12:22.231Z,101602.61
2019-01-21T15:14:30.772Z,101604.62
2019-01-21T15:16:48.216Z,101602.80
2019-01-21T15:18:23.184Z,101605.75
2019-01-21T15:19:59.349Z,101602.42
2019-01-21T15:21:18.425Z,101606.20
2019-01-21T15:23:31.019Z,101599.37
2019-01-21T15:25:31.755Z,101600.09
2019-01-21T15:27:47.648Z,101594.80
2019-01-21T15:29:40.090Z,101601.71
2019-01-21T15:31:20.713Z,101595.94
2019-01-21T15:33:19.393Z,101598.51
2019-01-21T15:35:41.976Z,101595.94
2019-01-21T15:37:25.857Z,101592.20
2019-01-21T15:39:29.323Z,101591.33
2019-01-21T15:41:35.361Z,101589.17
2019-01-21T15:43:24.016Z,101585.06
2019-01-21T15:44:53.732Z,101580.07
2019-01-21T15:46:47.933Z,101578.38
2019-01-21T15:48:40.184Z,101570.40
2019-01-21T15:50:45.739Z,101571.66
2019-01-21T15:52:34.567Z,101575.92
2019-01-21T15:54:10.872Z,101571.14
2019-01-21T15:55:57.443Z,101571.47
2019-01-21T15:57:55.672Z,101565.53
2019-01-21T16:00:07.060Z,101565.16
2019-01-21T16:02:15.431Z,101568.11
2019-01-21T16:04:07.373Z,101565.02
2019-01-21T16:05:54.849Z,101566.59
2019-01-21T16:07:53.079Z,101568.27
2019-01-21T16:09:33.566Z,101568.23
2019-01-21T16:11:56.522Z,101561.88
2019-01-21T16:13:24.426Z,101559.81
2019-01-21T16:15:18.427Z,101559.35
2019-01-21T16:17:18.700Z,101553.89
2019-01-21T16:19:01.654Z,101554.36
2019-01-21T16:21:29.717Z,101551.47
2019-01-21T16:23:31.371Z,101554.47
2019-01-21T16:25:13.868Z,101551.23
2019-01-21T16:26:45.990Z,101548.72
2019-01-21T16:28:57.958Z,101548.20
2019-01-21T16:30:50.642Z,101549.42
2019-01-21T16:32:26.917Z,101548.99
2019-01-21T16:34:39.266Z,101539.01
2019-01-21T16:36:17.154Z,101537.00
2019-01-21T16:38:21.791Z,101536.21
2019-01-21T16:40:40.606Z,101539.63
2019-01-21T16:42:14.894Z,101543.41
2019-01-21T16:43:21.871Z,101538.03
2019-01-21T16:44:28.858Z,101534.63
2019-01-21T16:45:35.826Z,101535.52
2019-01-21T16:46:42.534Z,101536.34
2019-01-21T16:47:49.546Z,101530.78
2019-01-21T16:48:56.784Z,101532.98
2019-01-21T16:50:04.671Z,101529.95
2019-01-21T16:51:12.204Z,101532.43
2019-01-21T16:52:18.902Z,101530.45
2019-01-21T16:53:25.611Z,101530.13
2019-01-21T16:54:33.152Z,101531.06
2019-01-21T16:55:39.976Z,101526.50
2019-01-21T16:56:47.326Z,101522.11
2019-01-21T16:57:54.533Z,101516.27
2019-01-21T16:59:01.590Z,101514.69
2019-01-21T17:00:10.133Z,101511.78
2019-01-21T17:01:16.838Z,101508.04
2019-01-21T17:02:23.523Z,101505.47
2019-01-21T17:03:30.258Z,101503.84
2019-01-21T17:04:37.414Z,101505.14
2019-01-21T17:05:44.213Z,101502.40
2019-01-21T17:06:51.261Z,101504.45
2019-01-21T17:07:58.309Z,101505.63
2019-01-21T17:09:09.625Z,101503.14
2019-01-21T17:10:16.508Z,101503.56
2019-01-21T17:11:23.574Z,101504.83
2019-01-21T17:12:30.756Z,101511.64
2019-01-21T17:13:37.958Z,101508.89
2019-01-21T17:14:44.688Z,101509.30
2019-01-21T17:15:51.367Z,101512.25
2019-01-21T17:16:58.371Z,101512.20
2019-01-21T17:18:05.328Z,101509.35
2019-01-21T17:19:12.035Z,101512.30
2019-01-21T17:20:22.206Z,101512.77
2019-01-21T17:21:29.058Z,101507.77
2019-01-21T17:22:35.723Z,101512.67
2019-01-21T17:23:42.455Z,101506.78
2019-01-21T17:24:49.135Z,101507.63
2019-01-21T17:25:55.829Z,101505.58
2019-01-21T17:27:02.910Z,101505.20
2019-01-21T17:28:10.083Z,101503.00
2019-01-21T17:29:20.194Z,101502.54
2019-01-21T17:30:26.881Z,101502.58
2019-01-21T17:31:33.917Z,101499.27
2019-01-21T17:32:40.730Z,101497.21
2019-01-21T17:33:47.645Z,101499.27
2019-01-21T17:34:54.737Z,101502.17
2019-01-21T17:36:01.844Z,101502.06
2019-01-21T17:37:08.619Z,101497.13
2019-01-21T17:38:15.609Z,101492.54
2019-01-21T17:39:22.363Z,101495.39
2019-01-21T17:40:29.615Z,101497.95
2019-01-21T17:41:36.382Z,101497.49
2019-01-21T17:42:43.386Z,101499.59
2019-01-21T17:43:50.083Z,101497.78
2019-01-21T17:44:57.083Z,101494.88
2019-01-21T17:46:03.821Z,101501.56
2019-01-21T17:47:10.562Z,101493.99
2019-01-21T17:48:17.625Z,101496.47
2019-01-21T17:49:24.291Z,101495.67
2019-01-21T17:50:31.513Z,101490.25
2019-01-21T17:51:38.225Z,101492.35
2019-01-21T17:52:45.223Z,101492.73
2019-01-21T17:53:51.945Z,101493.52
2019-01-21T17:54:58.672Z,101493.05
2019-01-21T17:56:05.807Z,101486.33
2019-01-21T17:57:12.809Z,101488.00
2019-01-21T17:58:19.485Z,101492.95
2019-01-21T17:59:26.166Z,101490.11
2019-01-21T18:00:34.192Z,101491.42
2019-01-21T18:01:40.990Z,101493.05
2019-01-21T18:02:47.666Z,101492.22
2019-01-21T18:03:54.401Z,101491.42
2019-01-21T18:05:01.243Z,101490.63
2019-01-21T18:06:07.964Z,101489.69
2019-01-21T18:07:14.985Z,101488.80
2019-01-21T18:08:22.761Z,101488.95
2019-01-21T18:09:29.778Z,101490.91
2019-01-21T18:10:36.838Z,101484.65
2019-01-21T18:11:43.633Z,101490.52
2019-01-21T18:12:50.628Z,101485.44
2019-01-21T18:13:57.666Z,101490.02
2019-01-21T18:15:06.501Z,101487.50
2019-01-21T18:16:13.591Z,101481.33
2019-01-21T18:17:20.784Z,101485.13
2019-01-21T18:18:27.439Z,101490.21
2019-01-21T18:19:34.113Z,101488.11
2019-01-21T18:20:40.802Z,101491.37
2019-01-21T18:21:47.605Z,101488.89
2019-01-21T18:22:54.734Z,101491.42
2019-01-21T18:24:01.442Z,101491.41
2019-01-21T18:25:09.900Z,101491.41
2019-01-21T18:26:16.680Z,101486.74
2019-01-21T18:27:23.842Z,101489.08
2019-01-21T18:28:30.963Z,101484.04
2019-01-21T18:29:38.275Z,101485.34
2019-01-21T18:30:45.669Z,101487.72
2019-01-21T18:31:52.540Z,101485.67
2019-01-21T18:33:00.063Z,101484.13
2019-01-21T18:34:07.371Z,101484.93
2019-01-21T18:35:14.805Z,101482.83
2019-01-21T18:36:21.936Z,101482.87
2019-01-21T18:37:29.086Z,101485.44
2019-01-21T18:38:36.024Z,101481.28
2019-01-21T18:39:43.133Z,101477.83
2019-01-21T18:40:50.009Z,101474.47
2019-01-21T18:41:56.948Z,101473.58
2019-01-21T18:43:03.993Z,101478.26
2019-01-21T18:44:11.262Z,101472.00
2019-01-21T18:45:22.907Z,101477.00
2019-01-21T18:46:30.260Z,101469.05
2019-01-21T18:47:37.508Z,101463.87
2019-01-21T18:48:44.565Z,101466.81
2019-01-21T18:49:51.881Z,101463.92
2019-01-21T18:50:59.222Z,101461.34
2019-01-21T18:52:06.491Z,101463.96
2019-01-21T18:53:13.719Z,101459.67